sensor_id;sensor_type;location;lat;lon;timestamp;P1;durP1;ratioP1;P2;durP2;ratioP2
75005;SDS011;63553;51.814;4.600;2024-03-02T00:00:03;0.30;;;0.30;;
75005;SDS011;63553;51.814;4.600;2024-03-02T00:05:08;0.73;;;0.68;;
75005;SDS011;63553;51.814;4.600;2024-03-02T00:07:36;0.45;;;0.45;;
75005;SDS011;63553;51.814;4.600;2024-03-02T00:10:04;0.57;;;0.57;;
75005;SDS011;63553;51.814;4.600;2024-03-02T00:12:35;0.77;;;0.77;;
75005;SDS011;63553;51.814;4.600;2024-03-02T00:15:01;0.75;;;0.75;;
75005;SDS011;63553;51.814;4.600;2024-03-02T00:17:46;1.55;;;0.80;;
75005;SDS011;63553;51.814;4.600;2024-03-02T00:20:18;0.63;;;0.63;;
75005;SDS011;63553;51.814;4.600;2024-03-02T00:22:51;0.70;;;0.70;;
75005;SDS011;63553;51.814;4.600;2024-03-02T00:25:33;1.38;;;0.50;;
75005;SDS011;63553;51.814;4.600;2024-03-02T00:28:24;0.38;;;0.38;;
75005;SDS011;63553;51.814;4.600;2024-03-02T00:33:33;0.80;;;0.40;;
75005;SDS011;63553;51.814;4.600;2024-03-02T00:36:12;0.70;;;0.55;;
75005;SDS011;63553;51.814;4.600;2024-03-02T00:38:56;0.63;;;0.50;;
75005;SDS011;63553;51.814;4.600;2024-03-02T00:41:27;0.57;;;0.57;;
75005;SDS011;63553;51.814;4.600;2024-03-02T00:46:23;0.50;;;0.50;;
75005;SDS011;63553;51.814;4.600;2024-03-02T00:48:53;1.17;;;0.70;;
75005;SDS011;63553;51.814;4.600;2024-03-02T00:51:20;1.08;;;1.08;;
75005;SDS011;63553;51.814;4.600;2024-03-02T00:53:46;0.90;;;0.90;;
75005;SDS011;63553;51.814;4.600;2024-03-02T00:56:12;1.00;;;1.00;;
75005;SDS011;63553;51.814;4.600;2024-03-02T00:58:38;1.20;;;1.20;;
75005;SDS011;63553;51.814;4.600;2024-03-02T01:01:04;1.00;;;0.93;;
75005;SDS011;63553;51.814;4.600;2024-03-02T01:03:31;3.17;;;1.33;;
75005;SDS011;63553;51.814;4.600;2024-03-02T01:05:57;1.20;;;1.10;;
75005;SDS011;63553;51.814;4.600;2024-03-02T01:08:23;1.08;;;1.08;;
75005;SDS011;63553;51.814;4.600;2024-03-02T01:10:49;1.10;;;1.10;;
75005;SDS011;63553;51.814;4.600;2024-03-02T01:13:14;1.10;;;1.00;;
75005;SDS011;63553;51.814;4.600;2024-03-02T01:15:39;1.33;;;1.23;;
75005;SDS011;63553;51.814;4.600;2024-03-02T01:18:05;0.80;;;0.80;;
75005;SDS011;63553;51.814;4.600;2024-03-02T01:20:30;1.00;;;1.00;;
75005;SDS011;63553;51.814;4.600;2024-03-02T01:22:56;1.00;;;1.00;;
75005;SDS011;63553;51.814;4.600;2024-03-02T01:25:21;1.77;;;1.03;;
75005;SDS011;63553;51.814;4.600;2024-03-02T01:27:47;1.00;;;1.00;;
75005;SDS011;63553;51.814;4.600;2024-03-02T01:30:12;0.90;;;0.90;;
75005;SDS011;63553;51.814;4.600;2024-03-02T01:32:38;0.90;;;0.90;;
75005;SDS011;63553;51.814;4.600;2024-03-02T01:35:04;0.77;;;0.70;;
75005;SDS011;63553;51.814;4.600;2024-03-02T01:37:31;0.63;;;0.63;;
75005;SDS011;63553;51.814;4.600;2024-03-02T01:39:57;0.80;;;0.80;;
75005;SDS011;63553;51.814;4.600;2024-03-02T01:42:23;0.73;;;0.73;;
75005;SDS011;63553;51.814;4.600;2024-03-02T01:44:49;1.60;;;0.60;;
75005;SDS011;63553;51.814;4.600;2024-03-02T01:47:14;0.63;;;0.63;;
75005;SDS011;63553;51.814;4.600;2024-03-02T01:49:39;0.53;;;0.53;;
75005;SDS011;63553;51.814;4.600;2024-03-02T01:52:07;0.60;;;0.60;;
75005;SDS011;63553;51.814;4.600;2024-03-02T01:54:32;0.40;;;0.40;;
75005;SDS011;63553;51.814;4.600;2024-03-02T01:56:58;0.40;;;0.40;;
75005;SDS011;63553;51.814;4.600;2024-03-02T01:59:24;0.60;;;0.60;;
75005;SDS011;63553;51.814;4.600;2024-03-02T02:01:49;0.65;;;0.63;;
75005;SDS011;63553;51.814;4.600;2024-03-02T02:04:15;0.50;;;0.50;;
75005;SDS011;63553;51.814;4.600;2024-03-02T02:06:40;0.57;;;0.57;;
75005;SDS011;63553;51.814;4.600;2024-03-02T02:09:06;0.80;;;0.80;;
75005;SDS011;63553;51.814;4.600;2024-03-02T02:11:33;0.40;;;0.40;;
75005;SDS011;63553;51.814;4.600;2024-03-02T02:13:59;0.43;;;0.43;;
75005;SDS011;63553;51.814;4.600;2024-03-02T02:16:24;0.60;;;0.60;;
75005;SDS011;63553;51.814;4.600;2024-03-02T02:18:50;0.73;;;0.60;;
75005;SDS011;63553;51.814;4.600;2024-03-02T02:21:15;0.60;;;0.60;;
75005;SDS011;63553;51.814;4.600;2024-03-02T02:23:40;1.67;;;0.70;;
75005;SDS011;63553;51.814;4.600;2024-03-02T02:26:11;2.00;;;0.70;;
75005;SDS011;63553;51.814;4.600;2024-03-02T02:28:36;5.00;;;0.90;;
75005;SDS011;63553;51.814;4.600;2024-03-02T02:31:02;0.80;;;0.60;;
75005;SDS011;63553;51.814;4.600;2024-03-02T02:33:27;1.55;;;0.75;;
75005;SDS011;63553;51.814;4.600;2024-03-02T02:35:53;0.50;;;0.50;;
75005;SDS011;63553;51.814;4.600;2024-03-02T02:38:18;1.80;;;0.70;;
75005;SDS011;63553;51.814;4.600;2024-03-02T02:40:45;1.38;;;0.52;;
75005;SDS011;63553;51.814;4.600;2024-03-02T02:43:10;0.75;;;0.75;;
75005;SDS011;63553;51.814;4.600;2024-03-02T02:45:35;0.70;;;0.70;;
75005;SDS011;63553;51.814;4.600;2024-03-02T02:48:01;1.43;;;0.60;;
75005;SDS011;63553;51.814;4.600;2024-03-02T02:50:27;0.75;;;0.65;;
75005;SDS011;63553;51.814;4.600;2024-03-02T02:52:53;1.00;;;0.85;;
75005;SDS011;63553;51.814;4.600;2024-03-02T02:55:18;1.63;;;0.80;;
75005;SDS011;63553;51.814;4.600;2024-03-02T02:57:44;0.70;;;0.70;;
75005;SDS011;63553;51.814;4.600;2024-03-02T03:00:11;2.75;;;0.95;;
75005;SDS011;63553;51.814;4.600;2024-03-02T03:02:41;0.63;;;0.60;;
75005;SDS011;63553;51.814;4.600;2024-03-02T03:05:08;0.75;;;0.70;;
75005;SDS011;63553;51.814;4.600;2024-03-02T03:07:35;0.95;;;0.68;;
75005;SDS011;63553;51.814;4.600;2024-03-02T03:10:01;0.50;;;0.50;;
75005;SDS011;63553;51.814;4.600;2024-03-02T03:12:28;0.60;;;0.60;;
75005;SDS011;63553;51.814;4.600;2024-03-02T03:14:54;0.73;;;0.70;;
75005;SDS011;63553;51.814;4.600;2024-03-02T03:17:20;1.85;;;0.85;;
75005;SDS011;63553;51.814;4.600;2024-03-02T03:19:46;0.60;;;0.60;;
75005;SDS011;63553;51.814;4.600;2024-03-02T03:22:12;0.80;;;0.80;;
75005;SDS011;63553;51.814;4.600;2024-03-02T03:24:38;1.30;;;0.70;;
75005;SDS011;63553;51.814;4.600;2024-03-02T03:27:03;1.30;;;0.75;;
75005;SDS011;63553;51.814;4.600;2024-03-02T03:29:29;2.43;;;1.13;;
75005;SDS011;63553;51.814;4.600;2024-03-02T03:31:54;0.98;;;0.90;;
75005;SDS011;63553;51.814;4.600;2024-03-02T03:34:19;0.50;;;0.50;;
75005;SDS011;63553;51.814;4.600;2024-03-02T03:36:44;1.00;;;0.70;;
75005;SDS011;63553;51.814;4.600;2024-03-02T03:39:10;0.80;;;0.80;;
75005;SDS011;63553;51.814;4.600;2024-03-02T03:41:35;0.63;;;0.63;;
75005;SDS011;63553;51.814;4.600;2024-03-02T03:44:00;5.15;;;1.02;;
75005;SDS011;63553;51.814;4.600;2024-03-02T03:46:26;3.80;;;1.43;;
75005;SDS011;63553;51.814;4.600;2024-03-02T03:48:51;0.70;;;0.70;;
75005;SDS011;63553;51.814;4.600;2024-03-02T03:51:16;0.77;;;0.70;;
75005;SDS011;63553;51.814;4.600;2024-03-02T03:53:42;0.63;;;0.60;;
75005;SDS011;63553;51.814;4.600;2024-03-02T03:56:07;0.70;;;0.70;;
75005;SDS011;63553;51.814;4.600;2024-03-02T03:58:33;1.33;;;0.73;;
75005;SDS011;63553;51.814;4.600;2024-03-02T04:00:58;0.73;;;0.60;;
75005;SDS011;63553;51.814;4.600;2024-03-02T04:03:23;1.60;;;0.87;;
75005;SDS011;63553;51.814;4.600;2024-03-02T04:05:49;0.80;;;0.60;;
75005;SDS011;63553;51.814;4.600;2024-03-02T04:08:14;1.13;;;0.57;;
75005;SDS011;63553;51.814;4.600;2024-03-02T04:10:39;1.23;;;0.70;;
75005;SDS011;63553;51.814;4.600;2024-03-02T04:13:05;0.70;;;0.70;;
75005;SDS011;63553;51.814;4.600;2024-03-02T04:15:31;0.63;;;0.60;;
75005;SDS011;63553;51.814;4.600;2024-03-02T04:17:56;1.03;;;0.63;;
75005;SDS011;63553;51.814;4.600;2024-03-02T04:20:21;0.60;;;0.60;;
75005;SDS011;63553;51.814;4.600;2024-03-02T04:22:47;0.60;;;0.60;;
75005;SDS011;63553;51.814;4.600;2024-03-02T04:25:12;0.60;;;0.60;;
75005;SDS011;63553;51.814;4.600;2024-03-02T04:27:37;1.27;;;0.70;;
75005;SDS011;63553;51.814;4.600;2024-03-02T04:30:03;2.20;;;0.70;;
75005;SDS011;63553;51.814;4.600;2024-03-02T04:32:30;1.50;;;0.70;;
75005;SDS011;63553;51.814;4.600;2024-03-02T04:34:56;1.95;;;0.47;;
75005;SDS011;63553;51.814;4.600;2024-03-02T04:37:21;0.55;;;0.55;;
75005;SDS011;63553;51.814;4.600;2024-03-02T04:39:47;0.70;;;0.60;;
75005;SDS011;63553;51.814;4.600;2024-03-02T04:42:12;1.77;;;0.70;;
75005;SDS011;63553;51.814;4.600;2024-03-02T04:44:37;1.38;;;0.50;;
75005;SDS011;63553;51.814;4.600;2024-03-02T04:47:03;0.60;;;0.60;;
75005;SDS011;63553;51.814;4.600;2024-03-02T04:49:29;1.13;;;0.60;;
75005;SDS011;63553;51.814;4.600;2024-03-02T04:51:55;1.60;;;0.90;;
75005;SDS011;63553;51.814;4.600;2024-03-02T04:54:21;1.00;;;0.63;;
75005;SDS011;63553;51.814;4.600;2024-03-02T04:56:47;0.50;;;0.50;;
75005;SDS011;63553;51.814;4.600;2024-03-02T04:59:16;0.50;;;0.50;;
75005;SDS011;63553;51.814;4.600;2024-03-02T05:01:44;3.22;;;0.75;;
75005;SDS011;63553;51.814;4.600;2024-03-02T05:04:10;1.98;;;0.50;;
75005;SDS011;63553;51.814;4.600;2024-03-02T05:06:37;0.55;;;0.55;;
75005;SDS011;63553;51.814;4.600;2024-03-02T05:09:04;2.88;;;0.70;;
75005;SDS011;63553;51.814;4.600;2024-03-02T05:11:29;0.40;;;0.40;;
75005;SDS011;63553;51.814;4.600;2024-03-02T05:14:03;0.98;;;0.60;;
75005;SDS011;63553;51.814;4.600;2024-03-02T05:16:32;2.47;;;0.65;;
75005;SDS011;63553;51.814;4.600;2024-03-02T05:18:59;0.73;;;0.63;;
75005;SDS011;63553;51.814;4.600;2024-03-02T05:21:24;0.80;;;0.60;;
75005;SDS011;63553;51.814;4.600;2024-03-02T05:23:50;2.07;;;0.40;;
75005;SDS011;63553;51.814;4.600;2024-03-02T05:26:15;0.63;;;0.60;;
75005;SDS011;63553;51.814;4.600;2024-03-02T05:28:40;0.93;;;0.80;;
75005;SDS011;63553;51.814;4.600;2024-03-02T05:31:06;0.60;;;0.60;;
75005;SDS011;63553;51.814;4.600;2024-03-02T05:33:31;1.15;;;0.90;;
75005;SDS011;63553;51.814;4.600;2024-03-02T05:35:58;1.35;;;0.80;;
75005;SDS011;63553;51.814;4.600;2024-03-02T05:38:23;0.68;;;0.32;;
75005;SDS011;63553;51.814;4.600;2024-03-02T05:40:49;0.90;;;0.40;;
75005;SDS011;63553;51.814;4.600;2024-03-02T05:43:14;1.27;;;0.90;;
75005;SDS011;63553;51.814;4.600;2024-03-02T05:45:40;0.68;;;0.68;;
75005;SDS011;63553;51.814;4.600;2024-03-02T05:48:08;2.33;;;0.47;;
75005;SDS011;63553;51.814;4.600;2024-03-02T05:50:34;0.80;;;0.40;;
75005;SDS011;63553;51.814;4.600;2024-03-02T05:53:00;2.70;;;0.70;;
75005;SDS011;63553;51.814;4.600;2024-03-02T05:55:25;0.70;;;0.60;;
75005;SDS011;63553;51.814;4.600;2024-03-02T05:57:50;1.40;;;0.63;;
75005;SDS011;63553;51.814;4.600;2024-03-02T06:00:31;0.60;;;0.60;;
75005;SDS011;63553;51.814;4.600;2024-03-02T06:02:56;4.47;;;0.70;;
75005;SDS011;63553;51.814;4.600;2024-03-02T06:05:22;0.68;;;0.57;;
75005;SDS011;63553;51.814;4.600;2024-03-02T06:07:47;1.40;;;0.63;;
75005;SDS011;63553;51.814;4.600;2024-03-02T06:10:13;0.73;;;0.60;;
75005;SDS011;63553;51.814;4.600;2024-03-02T06:12:39;0.68;;;0.40;;
75005;SDS011;63553;51.814;4.600;2024-03-02T06:15:04;1.95;;;0.60;;
75005;SDS011;63553;51.814;4.600;2024-03-02T06:17:30;0.75;;;0.60;;
75005;SDS011;63553;51.814;4.600;2024-03-02T06:19:55;0.50;;;0.50;;
75005;SDS011;63553;51.814;4.600;2024-03-02T06:22:21;0.40;;;0.40;;
75005;SDS011;63553;51.814;4.600;2024-03-02T06:24:48;1.85;;;0.73;;
75005;SDS011;63553;51.814;4.600;2024-03-02T06:27:14;1.00;;;0.50;;
75005;SDS011;63553;51.814;4.600;2024-03-02T06:29:39;1.43;;;0.87;;
75005;SDS011;63553;51.814;4.600;2024-03-02T06:32:04;0.47;;;0.47;;
75005;SDS011;63553;51.814;4.600;2024-03-02T06:34:30;3.00;;;0.80;;
75005;SDS011;63553;51.814;4.600;2024-03-02T06:36:55;0.60;;;0.50;;
75005;SDS011;63553;51.814;4.600;2024-03-02T06:39:21;1.90;;;0.80;;
75005;SDS011;63553;51.814;4.600;2024-03-02T06:41:46;1.53;;;1.00;;
75005;SDS011;63553;51.814;4.600;2024-03-02T06:44:14;0.68;;;0.68;;
75005;SDS011;63553;51.814;4.600;2024-03-02T06:46:39;1.47;;;0.63;;
75005;SDS011;63553;51.814;4.600;2024-03-02T06:49:04;1.37;;;0.70;;
75005;SDS011;63553;51.814;4.600;2024-03-02T06:51:30;0.97;;;0.63;;
75005;SDS011;63553;51.814;4.600;2024-03-02T06:53:55;1.15;;;0.50;;
75005;SDS011;63553;51.814;4.600;2024-03-02T06:56:21;0.93;;;0.77;;
75005;SDS011;63553;51.814;4.600;2024-03-02T06:58:46;2.22;;;0.43;;
75005;SDS011;63553;51.814;4.600;2024-03-02T07:01:12;3.33;;;0.57;;
75005;SDS011;63553;51.814;4.600;2024-03-02T07:03:38;3.00;;;0.82;;
75005;SDS011;63553;51.814;4.600;2024-03-02T07:06:04;2.53;;;0.50;;
75005;SDS011;63553;51.814;4.600;2024-03-02T07:08:30;3.03;;;0.70;;
75005;SDS011;63553;51.814;4.600;2024-03-02T07:10:55;1.85;;;0.63;;
75005;SDS011;63553;51.814;4.600;2024-03-02T07:13:21;3.10;;;1.67;;
75005;SDS011;63553;51.814;4.600;2024-03-02T07:15:47;1.02;;;0.80;;
75005;SDS011;63553;51.814;4.600;2024-03-02T07:18:44;2.25;;;0.70;;
75005;SDS011;63553;51.814;4.600;2024-03-02T07:21:16;0.57;;;0.40;;
75005;SDS011;63553;51.814;4.600;2024-03-02T07:23:41;1.90;;;0.70;;
75005;SDS011;63553;51.814;4.600;2024-03-02T07:26:06;0.57;;;0.57;;
75005;SDS011;63553;51.814;4.600;2024-03-02T07:28:32;0.43;;;0.43;;
75005;SDS011;63553;51.814;4.600;2024-03-02T07:30:58;3.53;;;1.20;;
75005;SDS011;63553;51.814;4.600;2024-03-02T07:33:24;2.20;;;0.73;;
75005;SDS011;63553;51.814;4.600;2024-03-02T07:35:50;2.33;;;0.70;;
75005;SDS011;63553;51.814;4.600;2024-03-02T07:38:15;3.28;;;0.75;;
75005;SDS011;63553;51.814;4.600;2024-03-02T07:40:41;0.50;;;0.50;;
75005;SDS011;63553;51.814;4.600;2024-03-02T07:43:07;0.75;;;0.75;;
75005;SDS011;63553;51.814;4.600;2024-03-02T07:45:36;2.55;;;0.85;;
75005;SDS011;63553;51.814;4.600;2024-03-02T07:48:02;1.58;;;0.80;;
75005;SDS011;63553;51.814;4.600;2024-03-02T07:50:30;0.70;;;0.70;;
75005;SDS011;63553;51.814;4.600;2024-03-02T07:52:56;1.73;;;0.90;;
75005;SDS011;63553;51.814;4.600;2024-03-02T07:55:21;5.03;;;0.80;;
75005;SDS011;63553;51.814;4.600;2024-03-02T07:57:48;2.92;;;1.00;;
75005;SDS011;63553;51.814;4.600;2024-03-02T08:00:14;3.97;;;0.90;;
75005;SDS011;63553;51.814;4.600;2024-03-02T08:02:40;1.63;;;0.82;;
75005;SDS011;63553;51.814;4.600;2024-03-02T08:05:07;0.75;;;0.73;;
75005;SDS011;63553;51.814;4.600;2024-03-02T08:07:33;0.80;;;0.60;;
75005;SDS011;63553;51.814;4.600;2024-03-02T08:09:58;3.47;;;0.70;;
75005;SDS011;63553;51.814;4.600;2024-03-02T08:12:24;1.27;;;0.75;;
75005;SDS011;63553;51.814;4.600;2024-03-02T08:14:49;4.30;;;1.13;;
75005;SDS011;63553;51.814;4.600;2024-03-02T08:17:14;4.10;;;1.17;;
75005;SDS011;63553;51.814;4.600;2024-03-02T08:19:40;2.47;;;0.80;;
75005;SDS011;63553;51.814;4.600;2024-03-02T08:22:06;47.58;;;8.68;;
75005;SDS011;63553;51.814;4.600;2024-03-02T08:24:31;65.18;;;13.02;;
75005;SDS011;63553;51.814;4.600;2024-03-02T08:26:58;56.80;;;17.23;;
75005;SDS011;63553;51.814;4.600;2024-03-02T08:29:24;37.53;;;11.68;;
75005;SDS011;63553;51.814;4.600;2024-03-02T08:31:50;23.10;;;8.70;;
75005;SDS011;63553;51.814;4.600;2024-03-02T08:34:15;14.50;;;5.87;;
75005;SDS011;63553;51.814;4.600;2024-03-02T08:36:41;10.18;;;3.85;;
75005;SDS011;63553;51.814;4.600;2024-03-02T08:39:07;13.13;;;4.55;;
75005;SDS011;63553;51.814;4.600;2024-03-02T08:41:40;7.40;;;2.80;;
75005;SDS011;63553;51.814;4.600;2024-03-02T08:44:12;5.97;;;2.38;;
75005;SDS011;63553;51.814;4.600;2024-03-02T08:46:38;7.82;;;2.28;;
75005;SDS011;63553;51.814;4.600;2024-03-02T08:49:04;3.20;;;2.10;;
75005;SDS011;63553;51.814;4.600;2024-03-02T08:51:30;3.75;;;1.80;;
75005;SDS011;63553;51.814;4.600;2024-03-02T08:53:55;3.60;;;1.85;;
75005;SDS011;63553;51.814;4.600;2024-03-02T08:56:21;4.70;;;1.65;;
75005;SDS011;63553;51.814;4.600;2024-03-02T08:58:48;2.60;;;1.45;;
75005;SDS011;63553;51.814;4.600;2024-03-02T09:01:14;2.22;;;1.42;;
75005;SDS011;63553;51.814;4.600;2024-03-02T09:03:40;4.97;;;1.70;;
75005;SDS011;63553;51.814;4.600;2024-03-02T09:06:09;4.50;;;1.35;;
75005;SDS011;63553;51.814;4.600;2024-03-02T09:08:34;1.98;;;1.08;;
75005;SDS011;63553;51.814;4.600;2024-03-02T09:11:01;2.05;;;1.00;;
75005;SDS011;63553;51.814;4.600;2024-03-02T09:13:27;1.98;;;1.15;;
75005;SDS011;63553;51.814;4.600;2024-03-02T09:15:54;3.08;;;1.05;;
75005;SDS011;63553;51.814;4.600;2024-03-02T09:18:19;1.63;;;1.10;;
75005;SDS011;63553;51.814;4.600;2024-03-02T09:20:44;2.83;;;1.00;;
75005;SDS011;63553;51.814;4.600;2024-03-02T09:23:10;1.15;;;0.77;;
75005;SDS011;63553;51.814;4.600;2024-03-02T09:25:36;0.80;;;0.80;;
75005;SDS011;63553;51.814;4.600;2024-03-02T09:28:02;1.58;;;0.80;;
75005;SDS011;63553;51.814;4.600;2024-03-02T09:30:28;1.77;;;1.05;;
75005;SDS011;63553;51.814;4.600;2024-03-02T09:32:53;1.58;;;0.80;;
75005;SDS011;63553;51.814;4.600;2024-03-02T09:35:18;5.22;;;0.90;;
75005;SDS011;63553;51.814;4.600;2024-03-02T09:37:44;1.45;;;0.82;;
75005;SDS011;63553;51.814;4.600;2024-03-02T09:40:10;1.67;;;0.73;;
75005;SDS011;63553;51.814;4.600;2024-03-02T09:42:36;1.23;;;0.90;;
75005;SDS011;63553;51.814;4.600;2024-03-02T09:45:02;4.13;;;0.90;;
75005;SDS011;63553;51.814;4.600;2024-03-02T09:47:27;1.25;;;0.80;;
75005;SDS011;63553;51.814;4.600;2024-03-02T09:49:53;2.10;;;0.90;;
75005;SDS011;63553;51.814;4.600;2024-03-02T09:52:20;1.38;;;0.80;;
75005;SDS011;63553;51.814;4.600;2024-03-02T09:54:47;3.08;;;0.90;;
75005;SDS011;63553;51.814;4.600;2024-03-02T09:57:13;0.80;;;0.77;;
75005;SDS011;63553;51.814;4.600;2024-03-02T09:59:39;1.85;;;0.88;;
75005;SDS011;63553;51.814;4.600;2024-03-02T10:02:04;0.93;;;0.52;;
75005;SDS011;63553;51.814;4.600;2024-03-02T10:04:32;2.05;;;0.90;;
75005;SDS011;63553;51.814;4.600;2024-03-02T10:09:39;2.20;;;0.80;;
75005;SDS011;63553;51.814;4.600;2024-03-02T10:12:06;1.50;;;0.95;;
75005;SDS011;63553;51.814;4.600;2024-03-02T10:14:33;1.38;;;0.88;;
75005;SDS011;63553;51.814;4.600;2024-03-02T10:17:02;2.15;;;0.68;;
75005;SDS011;63553;51.814;4.600;2024-03-02T10:19:28;1.65;;;0.82;;
75005;SDS011;63553;51.814;4.600;2024-03-02T10:21:58;1.33;;;0.60;;
75005;SDS011;63553;51.814;4.600;2024-03-02T10:24:24;0.95;;;0.63;;
75005;SDS011;63553;51.814;4.600;2024-03-02T10:26:50;0.60;;;0.60;;
75005;SDS011;63553;51.814;4.600;2024-03-02T10:29:16;1.90;;;0.80;;
75005;SDS011;63553;51.814;4.600;2024-03-02T10:31:42;1.98;;;0.85;;
75005;SDS011;63553;51.814;4.600;2024-03-02T10:34:11;1.17;;;0.90;;
75005;SDS011;63553;51.814;4.600;2024-03-02T10:36:40;2.58;;;0.82;;
75005;SDS011;63553;51.814;4.600;2024-03-02T10:39:07;1.25;;;0.88;;
75005;SDS011;63553;51.814;4.600;2024-03-02T10:41:37;1.98;;;0.70;;
75005;SDS011;63553;51.814;4.600;2024-03-02T10:44:04;1.33;;;0.82;;
75005;SDS011;63553;51.814;4.600;2024-03-02T10:46:35;0.80;;;0.73;;
75005;SDS011;63553;51.814;4.600;2024-03-02T10:49:02;0.60;;;0.60;;
75005;SDS011;63553;51.814;4.600;2024-03-02T10:51:31;1.48;;;0.90;;
75005;SDS011;63553;51.814;4.600;2024-03-02T10:53:58;2.05;;;0.77;;
75005;SDS011;63553;51.814;4.600;2024-03-02T10:56:29;1.33;;;0.73;;
75005;SDS011;63553;51.814;4.600;2024-03-02T10:59:51;4.35;;;0.88;;
75005;SDS011;63553;51.814;4.600;2024-03-02T11:02:01;2.97;;;0.73;;
75005;SDS011;63553;51.814;4.600;2024-03-02T11:04:28;2.97;;;0.52;;
75005;SDS011;63553;51.814;4.600;2024-03-02T11:07:05;2.40;;;0.80;;
75005;SDS011;63553;51.814;4.600;2024-03-02T11:09:33;0.73;;;0.73;;
75005;SDS011;63553;51.814;4.600;2024-03-02T11:14:37;4.22;;;0.80;;
75005;SDS011;63553;51.814;4.600;2024-03-02T11:17:08;1.85;;;0.60;;
75005;SDS011;63553;51.814;4.600;2024-03-02T11:19:35;1.65;;;0.70;;
75005;SDS011;63553;51.814;4.600;2024-03-02T11:24:31;1.15;;;0.70;;
75005;SDS011;63553;51.814;4.600;2024-03-02T11:27:03;0.77;;;0.77;;
75005;SDS011;63553;51.814;4.600;2024-03-02T11:32:03;1.10;;;0.68;;
75005;SDS011;63553;51.814;4.600;2024-03-02T11:34:30;1.05;;;0.65;;
75005;SDS011;63553;51.814;4.600;2024-03-02T11:37:00;1.33;;;0.60;;
75005;SDS011;63553;51.814;4.600;2024-03-02T11:39:29;0.82;;;0.50;;
75005;SDS011;63553;51.814;4.600;2024-03-02T11:41:59;2.60;;;0.90;;
75005;SDS011;63553;51.814;4.600;2024-03-02T11:44:25;2.70;;;0.90;;
75005;SDS011;63553;51.814;4.600;2024-03-02T11:46:58;4.28;;;0.60;;
75005;SDS011;63553;51.814;4.600;2024-03-02T11:49:43;1.00;;;0.70;;
75005;SDS011;63553;51.814;4.600;2024-03-02T11:52:16;2.38;;;0.68;;
75005;SDS011;63553;51.814;4.600;2024-03-02T11:54:43;3.83;;;0.65;;
75005;SDS011;63553;51.814;4.600;2024-03-02T11:57:20;1.52;;;0.65;;
75005;SDS011;63553;51.814;4.600;2024-03-02T11:59:47;1.52;;;0.85;;
75005;SDS011;63553;51.814;4.600;2024-03-02T12:02:15;1.05;;;0.85;;
75005;SDS011;63553;51.814;4.600;2024-03-02T12:04:44;1.13;;;0.80;;
75005;SDS011;63553;51.814;4.600;2024-03-02T12:07:11;3.00;;;0.80;;
75005;SDS011;63553;51.814;4.600;2024-03-02T12:09:37;2.85;;;0.77;;
75005;SDS011;63553;51.814;4.600;2024-03-02T12:14:30;1.15;;;0.80;;
75005;SDS011;63553;51.814;4.600;2024-03-02T12:16:57;0.98;;;0.77;;
75005;SDS011;63553;51.814;4.600;2024-03-02T12:19:23;1.83;;;0.60;;
75005;SDS011;63553;51.814;4.600;2024-03-02T12:21:49;3.55;;;1.08;;
75005;SDS011;63553;51.814;4.600;2024-03-02T12:24:15;1.90;;;0.80;;
75005;SDS011;63553;51.814;4.600;2024-03-02T12:26:40;1.50;;;0.60;;
75005;SDS011;63553;51.814;4.600;2024-03-02T12:29:06;1.40;;;0.90;;
75005;SDS011;63553;51.814;4.600;2024-03-02T12:31:32;3.85;;;0.70;;
75005;SDS011;63553;51.814;4.600;2024-03-02T12:33:57;1.40;;;0.65;;
75005;SDS011;63553;51.814;4.600;2024-03-02T12:36:23;2.92;;;0.95;;
75005;SDS011;63553;51.814;4.600;2024-03-02T12:38:52;1.25;;;0.60;;
75005;SDS011;63553;51.814;4.600;2024-03-02T12:41:18;1.27;;;0.60;;
75005;SDS011;63553;51.814;4.600;2024-03-02T12:43:43;0.95;;;0.70;;
75005;SDS011;63553;51.814;4.600;2024-03-02T12:46:08;2.72;;;0.80;;
75005;SDS011;63553;51.814;4.600;2024-03-02T12:48:34;2.88;;;0.93;;
75005;SDS011;63553;51.814;4.600;2024-03-02T12:51:01;1.33;;;1.00;;
75005;SDS011;63553;51.814;4.600;2024-03-02T12:53:26;2.20;;;1.10;;
75005;SDS011;63553;51.814;4.600;2024-03-02T12:55:52;0.73;;;0.70;;
75005;SDS011;63553;51.814;4.600;2024-03-02T12:58:21;11.63;;;7.63;;
75005;SDS011;63553;51.814;4.600;2024-03-02T13:00:47;9.60;;;4.97;;
75005;SDS011;63553;51.814;4.600;2024-03-02T13:03:17;3.88;;;2.92;;
75005;SDS011;63553;51.814;4.600;2024-03-02T13:05:48;3.60;;;1.90;;
75005;SDS011;63553;51.814;4.600;2024-03-02T13:08:14;2.22;;;1.60;;
75005;SDS011;63553;51.814;4.600;2024-03-02T13:10:40;1.92;;;1.08;;
75005;SDS011;63553;51.814;4.600;2024-03-02T13:13:06;1.05;;;1.05;;
75005;SDS011;63553;51.814;4.600;2024-03-02T13:15:32;1.95;;;0.90;;
75005;SDS011;63553;51.814;4.600;2024-03-02T13:17:58;1.38;;;1.08;;
75005;SDS011;63553;51.814;4.600;2024-03-02T13:20:29;1.63;;;0.75;;
75005;SDS011;63553;51.814;4.600;2024-03-02T13:22:56;2.97;;;0.95;;
75005;SDS011;63553;51.814;4.600;2024-03-02T13:25:22;4.60;;;1.40;;
75005;SDS011;63553;51.814;4.600;2024-03-02T13:27:47;1.93;;;0.93;;
75005;SDS011;63553;51.814;4.600;2024-03-02T13:30:13;1.20;;;0.70;;
75005;SDS011;63553;51.814;4.600;2024-03-02T13:32:38;3.30;;;1.23;;
75005;SDS011;63553;51.814;4.600;2024-03-02T13:35:03;3.53;;;1.00;;
75005;SDS011;63553;51.814;4.600;2024-03-02T13:37:29;4.03;;;1.45;;
75005;SDS011;63553;51.814;4.600;2024-03-02T13:39:54;3.10;;;1.10;;
75005;SDS011;63553;51.814;4.600;2024-03-02T13:42:20;2.00;;;0.70;;
75005;SDS011;63553;51.814;4.600;2024-03-02T13:44:45;2.30;;;1.05;;
75005;SDS011;63553;51.814;4.600;2024-03-02T13:47:13;1.70;;;0.77;;
75005;SDS011;63553;51.814;4.600;2024-03-02T13:49:38;2.08;;;0.95;;
75005;SDS011;63553;51.814;4.600;2024-03-02T13:52:08;0.57;;;0.52;;
75005;SDS011;63553;51.814;4.600;2024-03-02T13:54:41;2.40;;;0.70;;
75005;SDS011;63553;51.814;4.600;2024-03-02T13:57:07;2.40;;;0.68;;
75005;SDS011;63553;51.814;4.600;2024-03-02T13:59:34;2.85;;;1.00;;
75005;SDS011;63553;51.814;4.600;2024-03-02T14:02:00;2.78;;;0.82;;
75005;SDS011;63553;51.814;4.600;2024-03-02T14:04:26;0.82;;;0.82;;
75005;SDS011;63553;51.814;4.600;2024-03-02T14:06:52;2.20;;;0.80;;
75005;SDS011;63553;51.814;4.600;2024-03-02T14:09:18;1.58;;;0.70;;
75005;SDS011;63553;51.814;4.600;2024-03-02T14:11:45;0.70;;;0.70;;
75005;SDS011;63553;51.814;4.600;2024-03-02T14:14:10;2.55;;;0.90;;
75005;SDS011;63553;51.814;4.600;2024-03-02T14:16:36;0.93;;;0.57;;
75005;SDS011;63553;51.814;4.600;2024-03-02T14:19:01;3.20;;;0.93;;
75005;SDS011;63553;51.814;4.600;2024-03-02T14:21:29;1.73;;;1.08;;
75005;SDS011;63553;51.814;4.600;2024-03-02T14:23:54;1.40;;;0.85;;
75005;SDS011;63553;51.814;4.600;2024-03-02T14:26:20;3.28;;;0.95;;
75005;SDS011;63553;51.814;4.600;2024-03-02T14:28:45;0.82;;;0.60;;
75005;SDS011;63553;51.814;4.600;2024-03-02T14:31:11;1.08;;;0.93;;
75005;SDS011;63553;51.814;4.600;2024-03-02T14:33:36;1.90;;;0.73;;
75005;SDS011;63553;51.814;4.600;2024-03-02T14:36:02;1.38;;;0.63;;
75005;SDS011;63553;51.814;4.600;2024-03-02T14:38:29;3.22;;;0.95;;
75005;SDS011;63553;51.814;4.600;2024-03-02T14:40:54;1.50;;;0.80;;
75005;SDS011;63553;51.814;4.600;2024-03-02T14:43:20;0.95;;;0.70;;
75005;SDS011;63553;51.814;4.600;2024-03-02T14:45:45;1.23;;;0.57;;
75005;SDS011;63553;51.814;4.600;2024-03-02T14:48:11;0.70;;;0.68;;
75005;SDS011;63553;51.814;4.600;2024-03-02T14:50:37;1.73;;;0.63;;
75005;SDS011;63553;51.814;4.600;2024-03-02T14:53:02;2.05;;;0.90;;
75005;SDS011;63553;51.814;4.600;2024-03-02T14:55:27;1.35;;;0.68;;
75005;SDS011;63553;51.814;4.600;2024-03-02T14:57:53;1.80;;;0.80;;
75005;SDS011;63553;51.814;4.600;2024-03-02T15:00:18;0.85;;;0.60;;
75005;SDS011;63553;51.814;4.600;2024-03-02T15:02:44;1.25;;;0.88;;
75005;SDS011;63553;51.814;4.600;2024-03-02T15:05:09;0.95;;;0.50;;